Latest Coastal Weather Observations for Mallacoota

IDV60701

Issued at 9:21 pm EDT Tuesday 27 January 2015 (issued every 10 minutes, with the page automatically refreshed every 10 minutes)

About coastal observations | Map of coastal stations | Coastal observations for VIC | Marine services | Other Formats
Station Details ID: 084084 Name: MALLACOOTA Lat: -37.60 Lon: 149.73 Height: 22.0 m
Data from the previous 72 hours. | See also: Recent months at Mallacoota
Date/Time
EDT
Temp

°C
Wind Pressure Rain
since 9am
mm
Weather Cloud Vis
km
Sea
Height
m
Swell
Dir
 
Speed
knots
Gust
knots
hPa Trend Height
m
Period
s
Dir
27/09:00pm 16.6 W 4 5 1016.4 - 0.0 - - - - - - -
27/08:30pm 16.8 W 4 5 1016.3 - 0.0 - - - - - - -
27/08:00pm 17.2 WSW 1 5 1016.2 - 0.0 - - - - - - -
27/07:30pm 18.1 S 2 5 1016.0 - 0.0 - - - - - - -
27/07:00pm 18.3 SSE 2 4 1015.7 - 0.0 - - - - - - -
27/06:30pm 18.4 SE 3 5 1015.5 - 0.0 - - - - - - -
27/06:00pm 18.4 ESE 6 8 1015.3 - 0.0 - - - - - - -
27/05:30pm 18.3 E 4 6 1015.6 - 0.0 - - - - - - -
27/05:00pm 18.3 ESE 3 5 1015.7 - 0.0 - - - - - - -
27/04:30pm 18.3 SE 4 5 1015.6 - 0.0 - - - - - - -
27/04:00pm 19.0 ESE 4 5 1015.5 - 0.0 - - - - - - -
27/03:30pm 19.0 E 5 6 1015.5 - 0.0 - - - - - - -
27/03:00pm 19.0 ENE 4 5 1015.6 - 0.0 - - - - - - -
27/02:30pm 18.5 ENE 1 3 1016.0 - 0.0 - - - - - - -
27/02:00pm 18.5 S 3 5 1016.1 - 0.0 - - - - - - -
27/01:30pm 18.4 ESE 5 7 1016.3 - 0.0 - - - - - - -
27/01:00pm 17.9 NE 5 8 1016.5 - 0.0 - - - - - - -
27/12:30pm 18.1 E 3 5 1016.8 - 0.0 - - - - - - -
27/12:00pm 18.0 CALM 0 0 1016.7 - 0.0 - - - - - - -
27/11:30am 18.1 CALM 0 0 1016.8 - 0.0 - - - - - - -
27/11:00am 17.9 CALM 0 0 1016.8 - 0.0 - - - - - - -
27/10:30am 18.0 ESE 3 4 1016.8 - 0.0 - - - - - - -
27/10:00am 17.8 ENE 3 4 1016.7 - 0.0 - - - - - - -
27/09:30am 19.1 NNE 2 4 1016.5 - 0.0 - - - - - - -
27/09:00am 16.9 NNW 4 5 1016.5 - 0.0 - - - - - - -
27/08:30am 15.9 W 5 6 1016.4 - 0.0 - - - - - - -
27/08:00am 15.6 W 5 7 1016.3 - 0.0 - - - - - - -
27/07:30am 14.7 WNW 5 7 1016.1 - 0.0 - - - - - - -
27/07:00am 14.6 WNW 5 7 1016.0 - 0.0 - - - - - - -
27/06:30am 14.3 WNW 5 7 1015.8 - 0.0 - - - - - - -
27/06:00am 14.2 WNW 5 7 1015.7 - 0.0 - - - - - - -
27/05:30am 14.1 WNW 5 7 1015.7 - 0.0 - - - - - - -
27/05:00am 14.1 WNW 5 7 1015.7 - 0.0 - - - - - - -
27/04:30am 14.3 WNW 6 8 1015.8 - 0.0 - - - - - - -
27/04:00am 14.3 WNW 5 7 1015.8 - 0.0 - - - - - - -
27/03:30am 14.3 WNW 5 7 1016.1 - 0.0 - - - - - - -
27/03:00am 14.3 WNW 5 6 1016.3 - 0.0 - - - - - - -
27/02:30am 14.5 WNW 5 7 1016.5 - 0.0 - - - - - - -
27/02:00am 14.5 W 5 6 1016.7 - 0.0 - - - - - - -
27/01:30am 14.6 WNW 5 7 1016.9 - 0.0 - - - - - - -
27/01:00am 14.6 WNW 5 7 1017.3 - 0.0 - - - - - - -
27/12:30am 14.5 NW 5 7 1017.5 - 0.0 - - - - - - -
27/12:00am 14.7 WNW 4 6 1017.5 - 0.0 - - - - - - -
 
Date/Time
EDT
Temp

°C
Wind Pressure Rain
since 9am
mm
Weather Cloud Vis
km
Sea
Height
m
Swell
Dir
 
Speed
knots
Gust
knots
hPa Trend Height
m
Period
s
Dir
26/11:30pm 14.8 NW 5 6 1017.7 - 0.0 - - - - - - -
26/11:00pm 15.1 W 4 6 1017.8 - 0.0 - - - - - - -
26/10:30pm 15.1 W 5 6 1018.0 - 0.0 - - - - - - -
26/10:00pm 15.3 WNW 4 5 1018.0 - 0.0 - - - - - - -
26/09:30pm 15.5 W 4 6 1017.9 - 0.0 - - - - - - -
26/09:00pm 15.8 WNW 4 5 1017.6 - 0.0 - - - - - - -
26/08:30pm 16.4 WSW 4 7 1017.5 - 0.0 - - - - - - -
26/08:00pm 17.1 S 5 8 1017.2 - 0.0 - - - - - - -
26/07:30pm 17.1 S 6 9 1016.7 - 0.0 - - - - - - -
26/07:00pm 17.2 S 7 12 1016.3 - 0.0 - - - - - - -
26/06:30pm 17.3 S 7 10 1016.1 - 0.0 - - - - - - -
26/06:00pm 17.4 S 7 10 1015.8 - 0.0 - - - - - - -
26/05:30pm 17.1 S 8 11 1016.1 - 0.0 - - - - - - -
26/05:00pm 17.3 S 8 12 1016.0 - 0.0 - - - - - - -
26/04:30pm 17.8 S 8 12 1016.2 - 0.0 - - - - - - -
26/04:00pm 17.4 S 9 14 1016.2 - 0.0 - - - - - - -
26/03:30pm 17.5 S 10 16 1015.9 - 0.0 - - - - - - -
26/03:00pm 17.8 S 9 15 - - 0.0 - - - - - - -
26/02:30pm 17.8 SSW 9 15 1016.0 - 0.0 - - - - - - -
26/02:00pm 18.0 S 9 13 - - 0.0 - - - - - - -
26/01:30pm 17.6 SSW 9 13 1016.2 - 0.0 - - - - - - -
26/01:00pm 17.5 SSW 8 13 1016.3 - 0.0 - - - - - - -
26/12:30pm 17.1 SSW 9 13 1016.2 - 0.0 - - - - - - -
26/12:00pm 17.2 SSW 8 13 1016.1 - 0.0 - - - - - - -
26/11:30am 17.2 SSW 7 10 1016.1 - 0.0 - - - - - - -
26/11:00am 17.2 S 5 10 1016.0 - 0.0 - - - - - - -
26/10:30am 17.0 SSW 6 9 1016.0 - 0.0 - - - - - - -
26/10:00am 16.7 WSW 7 10 1015.8 - 0.0 - - - - - - -
26/09:30am 16.6 WNW 6 9 1015.8 - 0.0 - - - - - - -
26/09:00am 16.1 WNW 6 10 1015.4 - 0.0 - - - - - - -
26/08:30am 15.4 W 6 10 1015.3 - 0.0 - - - - - - -
26/08:00am 14.9 WNW 7 11 1014.9 - 0.0 - - - - - - -
26/07:30am 14.6 W 6 10 1014.5 - 0.0 - - - - - - -
26/07:00am 14.3 W 5 9 1014.3 - 0.0 - - - - - - -
26/06:30am 14.2 W 6 10 1013.9 - 0.0 - - - - - - -
26/06:00am 14.1 W 6 10 1013.5 - 0.0 - - - - - - -
26/05:30am 14.1 W 5 8 1013.1 - 0.0 - - - - - - -
26/05:00am 14.1 W 6 9 1012.8 - 0.0 - - - - - - -
26/04:30am 14.1 W 5 8 1012.6 - 0.0 - - - - - - -
26/04:00am 13.7 WNW 5 7 1012.6 - 0.0 - - - - - - -
26/03:30am 14.2 WNW 5 7 1012.4 - 0.0 - - - - - - -
26/03:00am 14.5 WNW 5 7 1012.1 - 0.0 - - - - - - -
26/02:30am 14.7 WSW 6 9 1011.8 - 0.0 - - - - - - -
26/02:00am 14.9 WSW 5 9 1011.9 - 0.0 - - - - - - -
26/01:30am 15.6 WSW 5 8 1012.1 - 0.0 - - - - - - -
26/01:00am 15.8 WSW 6 9 1012.0 - 0.0 - - - - - - -
26/12:30am 16.0 WSW 6 11 1012.2 - 0.0 - - - - - - -
26/12:00am 16.4 SW 8 14 1012.0 - 0.0 - - - - - - -
 
Date/Time
EDT
Temp

°C
Wind Pressure Rain
since 9am
mm
Weather Cloud Vis
km
Sea
Height
m
Swell
Dir
 
Speed
knots
Gust
knots
hPa Trend Height
m
Period
s
Dir
25/11:30pm 16.5 SW 9 14 1012.0 - 0.0 - - - - - - -
25/11:00pm 16.5 SW 7 11 1011.9 - 0.0 - - - - - - -
25/10:30pm 16.5 SW 8 13 1011.7 - 0.0 - - - - - - -
25/10:00pm 16.6 SW 9 15 1011.4 - 0.0 - - - - - - -
25/09:30pm 16.7 SW 9 15 1011.0 - 0.0 - - - - - - -
25/09:00pm 16.9 SW 8 17 1010.4 - 0.0 - - - - - - -
25/08:30pm 17.0 SW 8 15 1009.9 - 0.0 - - - - - - -
25/08:00pm 16.9 SW 8 12 1009.4 - 0.0 - - - - - - -
25/07:30pm 17.2 SSW 10 16 1009.1 - 0.0 - - - - - - -
25/07:00pm 17.4 SW 9 17 1008.5 - 0.0 - - - - - - -
25/06:30pm 17.6 SSW 13 24 1008.0 - 0.0 - - - - - - -
25/06:00pm 17.8 SW 12 20 1007.4 - 0.0 - - - - - - -
25/05:30pm 17.8 SW 10 17 1007.2 - 0.0 - - - - - - -
25/05:00pm 18.0 SSW 12 18 1006.7 - 0.0 - - - - - - -
25/04:30pm 17.9 SW 12 21 1006.3 - 0.0 - - - - - - -
25/04:00pm 18.1 SW 13 23 1006.1 - 0.0 - - - - - - -
25/03:30pm 18.3 SSW 10 17 1005.8 - 0.0 - - - - - - -
25/03:00pm 18.1 SSW 14 21 1005.4 - 0.0 - - - - - - -
25/02:30pm 18.9 SSW 14 21 1005.2 - 0.0 - - - - - - -
25/02:00pm 18.2 SSW 15 24 1004.7 - 0.0 - - - - - - -
25/01:43pm 18.1 SSW 15 25 1004.6 - 0.0 - - - - - - -
25/01:30pm 18.4 SSW 14 24 1004.6 - 0.0 - - - - - - -
25/01:00pm 19.3 SSW 15 25 1004.3 - 0.0 - - - - - - -
25/12:48pm 19.4 SSW 15 26 1004.1 - 0.0 - - - - - - -
25/12:30pm 18.7 SSW 14 23 1004.1 - 0.0 - - - - - - -
25/12:01pm 19.7 SSW 16 26 1003.7 - 0.0 - - - - - - -
25/12:00pm 19.8 SSW 15 24 1003.6 - 0.0 - - - - - - -
25/11:30am 22.5 SW 11 18 1003.2 - 0.0 - - - - - - -
25/11:00am 21.9 WSW 5 9 1003.3 - 0.0 - - - - - - -
25/10:30am 20.4 SSW 7 12 1003.2 - 0.0 - - - - - - -
25/10:00am 20.4 SSW 10 16 1003.1 - 0.0 - - - - - - -
25/09:30am 20.5 SW 11 17 1002.8 - 0.0 - - - - - - -
25/09:00am 19.9 SW 8 15 1002.6 - 18.0 - - - - - - -
25/08:30am 20.1 SW 9 14 1002.1 - 18.0 - - - - - - -
25/08:00am 20.1 WSW 3 5 1001.3 - 18.0 - - - - - - -
25/07:30am 19.5 N 3 5 1000.9 - 18.0 - - - - - - -
25/07:00am 19.0 WNW 3 5 1000.5 - 18.0 - - - - - - -
25/06:30am 18.6 WNW 4 6 1000.2 - 18.0 - - - - - - -
25/06:00am 18.4 W 4 6 999.8 - 17.8 - - - - - - -
25/05:30am 18.4 W 5 7 999.7 - 17.8 - - - - - - -
25/05:00am 18.8 W 3 5 999.7 - 17.8 - - - - - - -
25/04:30am 19.1 SW 5 7 999.3 - 17.8 - - - - - - -
25/04:00am 19.1 W 3 4 999.4 - 17.8 - - - - - - -
25/03:30am 19.6 CALM 0 0 999.7 - 17.8 - - - - - - -
25/03:00am 20.4 N 5 7 999.7 - 17.8 - - - - - - -
25/02:30am 20.6 N 8 12 1000.1 - 17.8 - - - - - - -
25/02:00am 20.5 N 7 9 1000.6 - 17.8 - - - - - - -
25/01:30am 20.6 N 9 15 1001.1 - 17.8 - - - - - - -
25/01:00am 20.5 N 6 9 1001.3 - 17.8 - - - - - - -
25/12:30am 20.5 N 7 11 1001.7 - 17.8 - - - - - - -
25/12:00am 20.3 N 7 10 1001.4 - 17.8 - - - - - - -
 
Date/Time
EDT
Temp

°C
Wind Pressure Rain
since 9am
mm
Weather Cloud Vis
km
Sea
Height
m
Swell
Dir
 
Speed
knots
Gust
knots
hPa Trend Height
m
Period
s
Dir
24/11:30pm 19.9 N 7 9 1001.7 - 17.8 - - - - - - -
24/11:00pm 19.9 N 5 6 1001.8 - 17.8 - - - - - - -
24/10:30pm 19.9 N 5 7 1002.8 - 17.8 - - - - - - -
24/10:00pm 19.7 NE 5 11 1002.7 - 17.8 - - - - - - -
24/09:30pm 19.7 NNE 6 9 1002.7 - 17.8 - - - - - - -

Other Formats:

Comma delimited format used in spreadsheet applications
http://www.bom.gov.au/fwo/IDV60701/IDV60701.94935.axf

JavaScript Object Notation format (JSON) in row-major order
http://www.bom.gov.au/fwo/IDV60701/IDV60701.94935.json